createdAt,value
2023-04-15T00:00:21.091Z,1
2023-04-15T00:02:04.772Z,1
2023-04-15T00:03:48.481Z,7
2023-04-15T00:05:32.205Z,8
2023-04-15T00:07:15.881Z,8
2023-04-15T00:08:59.589Z,1
2023-04-15T00:10:43.294Z,1
2023-04-15T00:12:26.992Z,1
2023-04-15T00:14:10.720Z,1
2023-04-15T00:15:54.390Z,1
2023-04-15T00:17:38.098Z,2
2023-04-15T00:19:21.802Z,1
2023-04-15T00:21:05.514Z,1
2023-04-15T00:22:49.208Z,1
2023-04-15T00:24:32.909Z,1
2023-04-15T00:26:16.607Z,2
2023-04-15T00:28:00.372Z,1
2023-04-15T00:29:44.048Z,1
2023-04-15T00:31:27.718Z,1
2023-04-15T00:33:11.484Z,1
2023-04-15T00:34:55.116Z,1
2023-04-15T00:36:38.859Z,1
2023-04-15T00:38:22.534Z,1
2023-04-15T00:40:06.220Z,2
2023-04-15T00:41:49.940Z,1
2023-04-15T00:43:33.642Z,1
2023-04-15T00:45:17.343Z,1
2023-04-15T00:47:01.052Z,1
2023-04-15T00:48:44.749Z,8
2023-04-15T00:50:28.463Z,7
2023-04-15T00:52:12.153Z,8
2023-04-15T00:53:55.841Z,1
2023-04-15T00:55:39.575Z,1
2023-04-15T00:57:23.253Z,1
2023-04-15T00:59:06.955Z,1
2023-04-15T01:00:50.667Z,1
2023-04-15T01:02:34.366Z,1
2023-04-15T01:04:18.061Z,1
2023-04-15T01:06:01.784Z,1
2023-04-15T01:07:45.461Z,1
2023-04-15T01:09:29.185Z,1
2023-04-15T01:11:12.872Z,1
2023-04-15T01:12:56.571Z,1
2023-04-15T01:14:40.278Z,2
2023-04-15T01:16:23.978Z,1
2023-04-15T01:18:07.697Z,1
2023-04-15T01:19:51.416Z,8
2023-04-15T01:21:35.086Z,7
2023-04-15T01:23:18.793Z,8
2023-04-15T01:25:02.492Z,8
2023-04-15T01:26:46.189Z,2
2023-04-15T01:28:29.900Z,2
2023-04-15T01:30:13.602Z,1
2023-04-15T01:31:57.303Z,1
2023-04-15T01:33:41.039Z,1
2023-04-15T01:35:24.724Z,2
2023-04-15T01:37:08.420Z,1
2023-04-15T01:38:52.129Z,1
2023-04-15T01:40:35.811Z,1
2023-04-15T01:42:19.519Z,1
2023-04-15T01:44:03.225Z,1
2023-04-15T01:45:46.987Z,1
2023-04-15T01:47:30.632Z,1
2023-04-15T01:49:14.338Z,2
2023-04-15T01:50:58.036Z,1
2023-04-15T01:52:41.744Z,0
2023-04-15T01:54:25.453Z,1
2023-04-15T01:56:09.144Z,1
2023-04-15T01:57:52.846Z,0
2023-04-15T01:59:36.552Z,1
2023-04-15T02:01:20.251Z,1
2023-04-15T02:03:03.646Z,0
2023-04-15T02:04:47.370Z,1
2023-04-15T02:06:31.059Z,1
2023-04-15T02:08:14.754Z,2
2023-04-15T02:09:58.460Z,1
2023-04-15T02:11:42.169Z,1
2023-04-15T02:13:25.861Z,0
2023-04-15T02:15:09.568Z,1
2023-04-15T02:16:53.266Z,2
2023-04-15T02:18:36.980Z,1
2023-04-15T02:20:20.689Z,1
2023-04-15T02:22:04.377Z,1
2023-04-15T02:23:48.188Z,1
2023-04-15T02:25:31.796Z,1
2023-04-15T02:27:15.486Z,1
2023-04-15T02:28:59.192Z,1
2023-04-15T02:30:42.901Z,1
2023-04-15T02:32:26.608Z,1
2023-04-15T02:34:10.308Z,2
2023-04-15T02:35:54.088Z,1
2023-04-15T02:37:37.789Z,1
2023-04-15T02:39:21.409Z,1
2023-04-15T02:41:05.117Z,2
2023-04-15T02:42:48.812Z,1
2023-04-15T02:44:32.515Z,1
2023-04-15T02:46:16.235Z,1
2023-04-15T02:47:59.925Z,0
2023-04-15T02:49:43.624Z,1
2023-04-15T02:51:27.330Z,2
2023-04-15T02:53:11.089Z,1
2023-04-15T02:54:54.733Z,1
2023-04-15T02:56:38.432Z,1
2023-04-15T02:58:22.140Z,1
2023-04-15T03:00:05.847Z,1
2023-04-15T03:01:49.549Z,1
2023-04-15T03:03:33.240Z,1
2023-04-15T03:05:16.960Z,1
2023-04-15T03:07:00.657Z,1
2023-04-15T03:08:44.358Z,1
2023-04-15T03:10:28.063Z,1
2023-04-15T03:12:11.824Z,1
2023-04-15T03:13:55.481Z,1
2023-04-15T03:15:39.162Z,1
2023-04-15T03:17:22.860Z,1
2023-04-15T03:19:06.579Z,1
2023-04-15T03:20:50.276Z,1
2023-04-15T03:22:33.966Z,1
2023-04-15T03:24:17.701Z,1
2023-04-15T03:26:01.390Z,1
2023-04-15T03:27:45.081Z,1
2023-04-15T03:29:28.779Z,0
2023-04-15T03:31:12.485Z,1
2023-04-15T03:32:56.234Z,2
2023-04-15T03:34:39.909Z,1
2023-04-15T03:36:23.625Z,1
2023-04-15T03:38:07.302Z,1
2023-04-15T03:39:51.009Z,1
2023-04-15T03:41:34.692Z,1
2023-04-15T03:43:18.407Z,1
2023-04-15T03:45:02.117Z,1
2023-04-15T03:46:45.817Z,1
2023-04-15T03:48:29.515Z,1
2023-04-15T03:50:13.243Z,2
2023-04-15T03:51:56.929Z,2
2023-04-15T03:53:40.648Z,1
2023-04-15T03:55:24.323Z,1
2023-04-15T03:57:08.045Z,1
2023-04-15T03:58:51.730Z,1
2023-04-15T04:00:35.432Z,2
2023-04-15T04:02:19.139Z,1
2023-04-15T04:04:02.854Z,1
2023-04-15T04:05:46.530Z,1
2023-04-15T04:07:30.246Z,2
2023-04-15T04:09:13.939Z,1
2023-04-15T04:10:57.657Z,2
2023-04-15T04:12:41.361Z,3
2023-04-15T04:14:25.051Z,2
2023-04-15T04:16:08.751Z,4
2023-04-15T04:17:52.453Z,5
2023-04-15T04:19:36.154Z,6
2023-04-15T04:21:19.857Z,8
2023-04-15T04:23:03.576Z,10
2023-04-15T04:24:47.260Z,12
2023-04-15T04:26:30.957Z,15
2023-04-15T04:28:14.665Z,17
2023-04-15T04:29:58.372Z,21
2023-04-15T04:31:42.081Z,24
2023-04-15T04:33:25.760Z,30
2023-04-15T04:35:09.481Z,36
2023-04-15T04:36:53.184Z,44
2023-04-15T04:38:36.874Z,54
2023-04-15T04:40:20.595Z,66
2023-04-15T04:42:04.309Z,76
2023-04-15T04:43:47.980Z,83
2023-04-15T04:45:31.687Z,88
2023-04-15T04:47:15.388Z,96
2023-04-15T04:48:59.079Z,104
2023-04-15T04:50:42.805Z,113
2023-04-15T04:52:26.498Z,123
2023-04-15T04:54:10.409Z,135
2023-04-15T04:55:53.957Z,146
2023-04-15T04:57:37.593Z,157
2023-04-15T04:59:21.369Z,169
2023-04-15T05:01:04.996Z,180
2023-04-15T05:02:48.726Z,192
2023-04-15T05:04:32.417Z,204
2023-04-15T05:06:16.119Z,217
2023-04-15T05:07:59.811Z,229
2023-04-15T05:09:43.575Z,244
2023-04-15T05:11:27.290Z,261
2023-04-15T05:13:10.920Z,276
2023-04-15T05:14:54.630Z,296
2023-04-15T05:16:38.331Z,311
2023-04-15T05:18:22.047Z,325
2023-04-15T05:20:05.745Z,355
2023-04-15T05:21:49.473Z,425
2023-04-15T05:23:33.140Z,490
2023-04-15T05:25:16.909Z,583
2023-04-15T05:27:00.537Z,644
2023-04-15T05:28:44.252Z,627
2023-04-15T05:30:27.948Z,622
2023-04-15T05:32:11.678Z,674
2023-04-15T05:33:55.356Z,734
2023-04-15T05:35:39.061Z,737
2023-04-15T05:37:22.771Z,739
2023-04-15T05:39:06.454Z,738
2023-04-15T05:40:50.180Z,737
2023-04-15T05:42:33.870Z,738
2023-04-15T05:44:17.576Z,738
2023-04-15T05:46:01.264Z,738
2023-04-15T05:47:45.044Z,736
2023-04-15T05:49:28.677Z,737
2023-04-15T05:51:12.465Z,737
2023-04-15T05:52:56.077Z,738
2023-04-15T05:54:39.816Z,739
2023-04-15T05:56:23.491Z,738
2023-04-15T05:58:07.189Z,738
2023-04-15T05:59:50.928Z,738
2023-04-15T06:01:34.666Z,739
2023-04-15T06:03:18.290Z,738
2023-04-15T06:05:02.122Z,738
2023-04-15T06:06:45.706Z,729
2023-04-15T06:08:29.410Z,738
2023-04-15T06:10:13.114Z,737
2023-04-15T06:11:56.915Z,738
2023-04-15T06:13:40.545Z,738
2023-04-15T06:15:24.219Z,738
2023-04-15T06:17:07.936Z,738
2023-04-15T06:18:51.674Z,737
2023-04-15T06:20:35.330Z,739
2023-04-15T06:22:19.026Z,738
2023-04-15T06:24:02.754Z,738
2023-04-15T06:25:46.445Z,728
2023-04-15T06:27:30.138Z,738
2023-04-15T06:29:13.840Z,738
2023-04-15T06:30:57.590Z,738
2023-04-15T06:32:41.299Z,738
2023-04-15T06:34:24.977Z,739
2023-04-15T06:36:08.656Z,739
2023-04-15T06:37:52.353Z,738
2023-04-15T06:39:36.052Z,738
2023-04-15T06:41:19.745Z,739
2023-04-15T06:43:03.488Z,738
2023-04-15T06:44:47.164Z,729
2023-04-15T06:46:30.890Z,738
2023-04-15T06:48:14.587Z,738
2023-04-15T06:49:58.328Z,738
2023-04-15T06:51:41.973Z,737
2023-04-15T06:53:25.691Z,737
2023-04-15T06:55:09.440Z,738
2023-04-15T06:56:53.085Z,738
2023-04-15T06:58:36.789Z,737
2023-04-15T07:00:20.472Z,738
2023-04-15T07:02:04.187Z,738
2023-04-15T07:03:47.882Z,738
2023-04-15T07:05:31.605Z,737
2023-04-15T07:07:15.297Z,738
2023-04-15T07:08:59.112Z,738
2023-04-15T07:10:42.741Z,737
2023-04-15T07:12:26.445Z,737
2023-04-15T07:14:10.221Z,737
2023-04-15T07:15:54.011Z,738
2023-04-15T07:17:37.661Z,729
2023-04-15T07:19:21.350Z,738
2023-04-15T07:21:05.085Z,737
2023-04-15T07:22:48.629Z,738
2023-04-15T07:24:32.481Z,738
2023-04-15T07:26:16.217Z,738
2023-04-15T07:27:59.806Z,737
2023-04-15T07:29:43.420Z,739
2023-04-15T07:31:27.120Z,738
2023-04-15T07:33:10.907Z,738
2023-04-15T07:34:54.694Z,738
2023-04-15T07:36:38.277Z,738
2023-04-15T07:38:22.058Z,739
2023-04-15T07:40:05.641Z,738
2023-04-15T07:41:49.356Z,738
2023-04-15T07:43:33.156Z,738
2023-04-15T07:45:16.962Z,739
2023-04-15T07:47:00.520Z,738
2023-04-15T07:48:44.155Z,738
2023-04-15T07:50:27.973Z,729
2023-04-15T07:52:11.661Z,738
2023-04-15T07:53:55.288Z,739
2023-04-15T07:55:38.964Z,738
2023-04-15T07:57:22.696Z,738
2023-04-15T07:59:06.374Z,738
2023-04-15T08:00:50.201Z,738
2023-04-15T08:02:33.988Z,737
2023-04-15T08:04:17.483Z,738
2023-04-15T08:06:01.299Z,738
2023-04-15T08:07:45.008Z,738
2023-04-15T08:09:28.576Z,737
2023-04-15T08:11:12.326Z,738
2023-04-15T08:12:56.104Z,738
2023-04-15T08:14:39.691Z,739
2023-04-15T08:16:23.451Z,737
2023-04-15T08:18:07.230Z,737
2023-04-15T08:19:50.854Z,738
2023-04-15T08:21:34.628Z,738
2023-04-15T08:23:18.299Z,729
2023-04-15T08:25:01.974Z,737
2023-04-15T08:26:45.742Z,738
2023-04-15T08:28:29.408Z,738
2023-04-15T08:30:13.121Z,737
2023-04-15T08:31:56.787Z,737
2023-04-15T08:33:40.538Z,738
2023-04-15T08:35:24.118Z,738
2023-04-15T08:37:07.940Z,730
2023-04-15T08:38:51.668Z,737
2023-04-15T08:40:35.290Z,737
2023-04-15T08:42:19.009Z,738
2023-04-15T08:44:02.747Z,738
2023-04-15T08:45:46.379Z,738
2023-04-15T08:47:30.218Z,737
2023-04-15T08:49:13.960Z,739
2023-04-15T08:50:57.558Z,738
2023-04-15T08:52:41.146Z,738
2023-04-15T08:54:24.946Z,738
2023-04-15T08:56:08.602Z,738
2023-04-15T08:57:52.385Z,739
2023-04-15T08:59:35.979Z,737
2023-04-15T09:01:19.717Z,738
2023-04-15T09:03:03.370Z,739
2023-04-15T09:04:47.197Z,737
2023-04-15T09:06:30.843Z,737
2023-04-15T09:08:14.544Z,738
2023-04-15T09:09:58.272Z,740
2023-04-15T09:11:41.960Z,739
2023-04-15T09:13:25.593Z,737
2023-04-15T09:15:09.417Z,738
2023-04-15T09:16:52.989Z,738
2023-04-15T09:18:36.718Z,739
2023-04-15T09:20:20.392Z,738
2023-04-15T09:22:04.230Z,738
2023-04-15T09:23:47.921Z,737
2023-04-15T09:25:31.621Z,739
2023-04-15T09:27:15.275Z,738
2023-04-15T09:28:58.931Z,738
2023-04-15T09:30:42.724Z,739
2023-04-15T09:32:26.417Z,738
2023-04-15T09:34:10.153Z,739
2023-04-15T09:35:53.758Z,738
2023-04-15T09:37:37.561Z,729
2023-04-15T09:39:21.146Z,739
2023-04-15T09:41:04.971Z,738
2023-04-15T09:42:48.686Z,738
2023-04-15T09:44:32.356Z,738
2023-04-15T09:46:16.037Z,739
2023-04-15T09:47:59.755Z,739
2023-04-15T09:49:43.397Z,738
2023-04-15T09:51:27.066Z,737
2023-04-15T09:53:10.830Z,738
2023-04-15T09:54:54.617Z,738
2023-04-15T09:56:38.237Z,737
2023-04-15T09:58:21.912Z,738
2023-04-15T10:00:05.700Z,738
2023-04-15T10:01:49.402Z,738
2023-04-15T10:03:32.969Z,738
2023-04-15T10:05:16.875Z,738
2023-04-15T10:07:00.375Z,739
2023-04-15T10:08:44.074Z,739
2023-04-15T10:10:27.869Z,737
2023-04-15T10:12:11.604Z,738
2023-04-15T10:13:55.197Z,739
2023-04-15T10:15:38.989Z,738
2023-04-15T10:17:22.581Z,739
2023-04-15T10:19:06.420Z,738
2023-04-15T10:20:49.990Z,738
2023-04-15T10:22:33.698Z,739
2023-04-15T10:24:17.403Z,730
2023-04-15T10:26:01.219Z,739
2023-04-15T10:27:44.898Z,739
2023-04-15T10:29:28.508Z,739
2023-04-15T10:31:12.349Z,738
2023-04-15T10:32:55.919Z,738
2023-04-15T10:34:39.694Z,738
2023-04-15T10:36:23.326Z,738
2023-04-15T10:38:07.062Z,730
2023-04-15T10:39:50.781Z,738
2023-04-15T10:41:34.457Z,739
2023-04-15T10:43:18.116Z,739
2023-04-15T10:45:01.992Z,738
2023-04-15T10:46:45.545Z,738
2023-04-15T10:48:29.238Z,739
2023-04-15T10:50:12.932Z,738
2023-04-15T10:51:56.637Z,729
2023-04-15T10:53:40.375Z,739
2023-04-15T10:55:24.073Z,739
2023-04-15T10:57:07.760Z,739
2023-04-15T10:58:51.440Z,737
2023-04-15T11:00:35.310Z,738
2023-04-15T11:02:18.889Z,738
2023-04-15T11:05:46.263Z,737
2023-04-15T11:07:29.953Z,739
2023-04-15T11:09:13.653Z,740
2023-04-15T11:10:57.469Z,739
2023-04-15T11:12:41.076Z,738
2023-04-15T11:14:24.844Z,738
2023-04-15T11:16:08.538Z,739
2023-04-15T11:17:52.174Z,740
2023-04-15T11:19:35.888Z,739
2023-04-15T11:21:19.641Z,738
2023-04-15T11:23:03.276Z,739
2023-04-15T11:24:46.978Z,737
2023-04-15T11:26:30.803Z,738
2023-04-15T11:28:14.618Z,739
2023-04-15T11:29:58.289Z,738
2023-04-15T11:31:41.841Z,739
2023-04-15T11:33:25.641Z,739
2023-04-15T11:35:09.188Z,738
2023-04-15T11:36:52.891Z,738
2023-04-15T11:38:36.597Z,736
2023-04-15T11:40:20.303Z,740
2023-04-15T11:42:04.007Z,738
2023-04-15T11:43:47.699Z,738
2023-04-15T11:45:31.406Z,739
2023-04-15T11:47:15.117Z,739
2023-04-15T11:48:58.808Z,739
2023-04-15T11:50:42.520Z,738
2023-04-15T11:52:26.228Z,738
2023-04-15T11:54:09.936Z,739
2023-04-15T11:55:53.625Z,738
2023-04-15T11:57:37.330Z,738
2023-04-15T11:59:21.042Z,738
2023-04-15T12:01:04.737Z,739
2023-04-15T12:02:48.429Z,738
2023-04-15T12:04:32.132Z,738
2023-04-15T12:06:15.849Z,739
2023-04-15T12:07:59.560Z,738
2023-04-15T12:09:43.254Z,738
2023-04-15T12:11:26.942Z,738
2023-04-15T12:13:10.655Z,739
2023-04-15T12:14:54.351Z,740
2023-04-15T12:16:38.052Z,738
2023-04-15T12:18:21.764Z,739
2023-04-15T12:20:05.470Z,739
2023-04-15T12:21:49.160Z,739
2023-04-15T12:23:32.868Z,738
2023-04-15T12:25:16.565Z,738
2023-04-15T12:27:00.276Z,740
2023-04-15T12:28:43.985Z,739
2023-04-15T12:30:27.753Z,738
2023-04-15T12:32:11.382Z,739
2023-04-15T12:33:55.081Z,739
2023-04-15T12:35:38.816Z,739
2023-04-15T12:37:22.491Z,738
2023-04-15T12:39:06.202Z,737
2023-04-15T12:40:49.900Z,739
2023-04-15T12:42:33.602Z,740
2023-04-15T12:44:17.305Z,738
2023-04-15T12:46:01.006Z,738
2023-04-15T12:47:44.714Z,739
2023-04-15T12:49:28.417Z,739
2023-04-15T12:51:12.184Z,738
2023-04-15T12:52:55.818Z,730
2023-04-15T12:54:39.515Z,739
2023-04-15T12:56:23.298Z,739
2023-04-15T12:58:06.925Z,739
2023-04-15T12:59:50.626Z,738
2023-04-15T13:01:34.339Z,739
2023-04-15T13:03:18.033Z,739
2023-04-15T13:05:01.731Z,738
2023-04-15T13:06:45.439Z,738
2023-04-15T13:08:29.129Z,739
2023-04-15T13:10:12.833Z,741
2023-04-15T13:11:56.542Z,738
2023-04-15T13:13:40.253Z,738
2023-04-15T13:15:23.946Z,739
2023-04-15T13:17:07.647Z,739
2023-04-15T13:18:51.360Z,739
2023-04-15T13:20:35.064Z,739
2023-04-15T13:22:18.750Z,739
2023-04-15T13:24:02.456Z,738
2023-04-15T13:25:46.164Z,729
2023-04-15T13:27:29.864Z,738
2023-04-15T13:29:13.581Z,739
2023-04-15T13:30:57.263Z,740
2023-04-15T13:32:40.978Z,738
2023-04-15T13:34:24.676Z,738
2023-04-15T13:36:08.371Z,738
2023-04-15T13:37:52.074Z,739
2023-04-15T13:39:35.785Z,737
2023-04-15T13:41:19.483Z,738
2023-04-15T13:43:03.190Z,739
2023-04-15T13:44:46.886Z,740
2023-04-15T13:46:30.593Z,739
2023-04-15T13:48:14.314Z,738
2023-04-15T13:49:57.994Z,739
2023-04-15T13:51:41.704Z,738
2023-04-15T13:53:25.416Z,739
2023-04-15T13:55:09.116Z,738
2023-04-15T13:56:52.804Z,737
2023-04-15T13:58:36.514Z,730
2023-04-15T14:00:20.226Z,739
2023-04-15T14:02:03.913Z,738
2023-04-15T14:03:47.610Z,739
2023-04-15T14:05:31.324Z,739
2023-04-15T14:07:15.026Z,739
2023-04-15T14:08:58.715Z,738
2023-04-15T14:10:42.422Z,738
2023-04-15T14:12:26.124Z,737
2023-04-15T14:14:09.826Z,739
2023-04-15T14:15:53.531Z,738
2023-04-15T14:17:37.232Z,677
2023-04-15T14:19:20.933Z,639
2023-04-15T14:21:04.640Z,628
2023-04-15T14:22:48.335Z,605
2023-04-15T14:24:32.053Z,582
2023-04-15T14:26:15.747Z,561
2023-04-15T14:27:59.439Z,552
2023-04-15T14:29:43.143Z,548
2023-04-15T14:31:26.845Z,548
2023-04-15T14:33:10.559Z,551
2023-04-15T14:34:54.259Z,571
2023-04-15T14:36:37.954Z,590
2023-04-15T14:38:21.683Z,599
2023-04-15T14:40:05.364Z,613
2023-04-15T14:41:49.064Z,622
2023-04-15T14:43:32.948Z,639
2023-04-15T14:45:16.735Z,633
2023-04-15T14:47:00.173Z,584
2023-04-15T14:48:43.878Z,549
2023-04-15T14:50:27.574Z,507
2023-04-15T14:52:11.279Z,475
2023-04-15T14:53:54.981Z,459
2023-04-15T14:55:38.686Z,461
2023-04-15T14:57:22.385Z,497
2023-04-15T14:59:06.141Z,533
2023-04-15T15:00:49.798Z,533
2023-04-15T15:02:33.501Z,537
2023-04-15T15:04:17.203Z,522
2023-04-15T15:06:00.904Z,510
2023-04-15T15:07:44.606Z,494
2023-04-15T15:09:28.301Z,478
2023-04-15T15:11:12.024Z,475
2023-04-15T15:12:55.713Z,478
2023-04-15T15:14:39.406Z,475
2023-04-15T15:16:23.117Z,466
2023-04-15T15:18:06.812Z,465
2023-04-15T15:19:50.523Z,450
2023-04-15T15:21:34.231Z,445
2023-04-15T15:23:17.924Z,442
2023-04-15T15:25:01.635Z,443
2023-04-15T15:26:45.347Z,442
2023-04-15T15:28:29.032Z,440
2023-04-15T15:30:12.731Z,441
2023-04-15T15:31:56.447Z,434
2023-04-15T15:33:40.144Z,426
2023-04-15T15:35:23.871Z,413
2023-04-15T15:37:07.542Z,390
2023-04-15T15:38:51.270Z,375
2023-04-15T15:40:34.969Z,352
2023-04-15T15:42:18.640Z,331
2023-04-15T15:44:02.356Z,324
2023-04-15T15:45:46.062Z,323
2023-04-15T15:47:29.752Z,322
2023-04-15T15:49:13.456Z,322
2023-04-15T15:50:57.165Z,330
2023-04-15T15:52:40.874Z,335
2023-04-15T15:54:24.564Z,337
2023-04-15T15:56:08.263Z,327
2023-04-15T15:57:51.969Z,326
2023-04-15T15:59:35.676Z,335
2023-04-15T16:01:19.367Z,350
2023-04-15T16:03:03.077Z,365
2023-04-15T16:04:46.786Z,392
2023-04-15T16:06:30.496Z,401
2023-04-15T16:08:14.179Z,413
2023-04-15T16:09:57.939Z,423
2023-04-15T16:11:41.601Z,433
2023-04-15T16:13:25.302Z,438
2023-04-15T16:15:08.981Z,421
2023-04-15T16:16:52.684Z,422
2023-04-15T16:18:36.388Z,412
2023-04-15T16:20:20.098Z,381
2023-04-15T16:22:03.802Z,361
2023-04-15T16:23:47.499Z,342
2023-04-15T16:25:31.195Z,330
2023-04-15T16:27:14.915Z,319
2023-04-15T16:28:58.607Z,320
2023-04-15T16:30:42.299Z,323
2023-04-15T16:32:26.008Z,324
2023-04-15T16:34:09.704Z,323
2023-04-15T16:35:53.418Z,319
2023-04-15T16:37:37.109Z,325
2023-04-15T16:39:20.816Z,342
2023-04-15T16:41:04.519Z,354
2023-04-15T16:42:48.240Z,370
2023-04-15T16:44:31.925Z,379
2023-04-15T16:46:15.628Z,380
2023-04-15T16:47:59.329Z,369
2023-04-15T16:49:43.035Z,355
2023-04-15T16:51:26.730Z,339
2023-04-15T16:53:10.433Z,324
2023-04-15T16:54:54.150Z,309
2023-04-15T16:56:37.840Z,285
2023-04-15T16:58:21.547Z,250
2023-04-15T17:00:05.251Z,196
2023-04-15T17:01:48.940Z,150
2023-04-15T17:03:32.651Z,128
2023-04-15T17:05:16.359Z,126
2023-04-15T17:07:00.077Z,109
2023-04-15T17:08:43.757Z,97
2023-04-15T17:10:27.470Z,89
2023-04-15T17:12:11.156Z,81
2023-04-15T17:13:54.867Z,83
2023-04-15T17:15:38.590Z,80
2023-04-15T17:17:22.272Z,82
2023-04-15T17:19:05.966Z,88
2023-04-15T17:20:49.720Z,91
2023-04-15T17:22:33.376Z,95
2023-04-15T17:24:17.075Z,99
2023-04-15T17:26:00.776Z,95
2023-04-15T17:27:44.478Z,92
2023-04-15T17:29:28.176Z,79
2023-04-15T17:31:11.907Z,73
2023-04-15T17:32:55.598Z,62
2023-04-15T17:34:39.293Z,54
2023-04-15T17:36:22.998Z,44
2023-04-15T17:38:06.695Z,39
2023-04-15T17:39:50.436Z,34
2023-04-15T17:41:34.112Z,29
2023-04-15T17:43:17.795Z,27
2023-04-15T17:46:45.216Z,28
2023-04-15T17:48:28.910Z,28
2023-04-15T17:50:12.615Z,27
2023-04-15T17:51:56.319Z,23
2023-04-15T17:53:40.023Z,19
2023-04-15T17:55:23.724Z,16
2023-04-15T17:57:07.428Z,14
2023-04-15T17:58:51.131Z,13
2023-04-15T18:00:34.833Z,11
2023-04-15T18:02:18.542Z,9
2023-04-15T18:04:02.243Z,11
2023-04-15T18:05:45.932Z,10
2023-04-15T18:07:29.639Z,8
2023-04-15T18:09:13.343Z,7
2023-04-15T18:10:57.042Z,7
2023-04-15T18:12:40.782Z,5
2023-04-15T18:14:24.456Z,5
2023-04-15T18:16:08.147Z,5
2023-04-15T18:17:51.856Z,5
2023-04-15T18:19:35.560Z,4
2023-04-15T18:21:19.253Z,5
2023-04-15T18:23:02.962Z,4
2023-04-15T18:24:46.655Z,5
2023-04-15T18:26:30.373Z,5
2023-04-15T18:28:14.072Z,4
2023-04-15T18:29:57.777Z,3
2023-04-15T18:31:41.470Z,2
2023-04-15T18:33:25.188Z,2
2023-04-15T18:35:08.879Z,2
2023-04-15T18:36:52.584Z,1
2023-04-15T18:38:36.282Z,2
2023-04-15T18:40:20.009Z,2
2023-04-15T18:42:03.698Z,1
2023-04-15T18:43:47.397Z,1
2023-04-15T18:45:31.102Z,1
2023-04-15T18:47:14.809Z,1
2023-04-15T18:48:58.502Z,1
2023-04-15T18:50:42.211Z,1
2023-04-15T18:52:25.907Z,2
2023-04-15T18:54:09.605Z,1
2023-04-15T18:55:53.336Z,2
2023-04-15T18:57:37.025Z,1
2023-04-15T18:59:20.731Z,1
2023-04-15T19:01:04.436Z,2
2023-04-15T19:02:48.128Z,1
2023-04-15T19:04:31.830Z,1
2023-04-15T19:06:15.526Z,2
2023-04-15T19:07:59.231Z,1
2023-04-15T19:09:43.027Z,1
2023-04-15T19:11:26.635Z,1
2023-04-15T19:13:10.345Z,1
2023-04-15T19:14:54.051Z,1
2023-04-15T19:16:37.733Z,1
2023-04-15T19:18:21.451Z,1
2023-04-15T19:20:05.158Z,2
2023-04-15T19:21:48.849Z,1
2023-04-15T19:23:32.560Z,2
2023-04-15T19:25:16.253Z,1
2023-04-15T19:26:59.966Z,1
2023-04-15T19:28:43.661Z,1
2023-04-15T19:30:27.357Z,1
2023-04-15T19:32:11.078Z,1
2023-04-15T19:33:54.775Z,1
2023-04-15T19:35:38.468Z,1
2023-04-15T19:37:22.176Z,1
2023-04-15T19:39:05.876Z,1
2023-04-15T19:40:49.587Z,1
2023-04-15T19:42:33.289Z,1
2023-04-15T19:44:16.977Z,2
2023-04-15T19:46:00.690Z,2
2023-04-15T19:47:44.402Z,1
2023-04-15T19:49:28.095Z,2
2023-04-15T19:51:11.788Z,2
2023-04-15T19:52:55.504Z,2
2023-04-15T19:54:39.192Z,1
2023-04-15T19:56:22.918Z,1
2023-04-15T19:58:06.609Z,2
2023-04-15T19:59:50.308Z,2
2023-04-15T20:01:34.017Z,1
2023-04-15T20:03:17.708Z,2
2023-04-15T20:05:01.414Z,1
2023-04-15T20:06:45.120Z,1
2023-04-15T20:08:28.809Z,1
2023-04-15T20:10:12.548Z,1
2023-04-15T20:11:56.227Z,1
2023-04-15T20:13:39.964Z,2
2023-04-15T20:15:23.654Z,1
2023-04-15T20:17:07.332Z,1
2023-04-15T20:18:51.025Z,0
2023-04-15T20:20:34.732Z,1
2023-04-15T20:22:18.446Z,1
2023-04-15T20:24:02.131Z,1
2023-04-15T20:25:45.839Z,2
2023-04-15T20:27:29.537Z,1
2023-04-15T20:29:13.246Z,0
2023-04-15T20:30:56.941Z,2
2023-04-15T20:32:40.655Z,1
2023-04-15T20:34:24.349Z,1
2023-04-15T20:36:08.064Z,1
2023-04-15T20:37:51.752Z,1
2023-04-15T20:39:35.469Z,2
2023-04-15T20:41:19.160Z,1
2023-04-15T20:43:02.872Z,1
2023-04-15T20:44:46.589Z,1
2023-04-15T20:46:30.283Z,1
2023-04-15T20:48:13.981Z,1
2023-04-15T20:49:57.678Z,1
2023-04-15T20:51:41.382Z,2
2023-04-15T20:53:25.083Z,2
2023-04-15T20:55:08.778Z,2
2023-04-15T20:56:52.493Z,2
2023-04-15T20:58:36.194Z,1
2023-04-15T21:00:19.889Z,1
2023-04-15T21:02:03.605Z,2
2023-04-15T21:03:47.298Z,1
2023-04-15T21:05:31.008Z,2
2023-04-15T21:07:14.711Z,1
2023-04-15T21:08:58.418Z,1
2023-04-15T21:10:42.103Z,1
2023-04-15T21:12:25.814Z,1
2023-04-15T21:14:09.531Z,1
2023-04-15T21:15:53.232Z,8
2023-04-15T21:17:36.920Z,8
2023-04-15T21:21:04.320Z,8
2023-04-15T21:22:48.016Z,7
2023-04-15T21:24:31.720Z,1
2023-04-15T21:26:15.430Z,1
2023-04-15T21:27:59.126Z,1
2023-04-15T21:29:42.817Z,1
2023-04-15T21:31:26.536Z,1
2023-04-15T21:33:10.234Z,1
2023-04-15T21:34:53.939Z,1
2023-04-15T21:36:37.650Z,1
2023-04-15T21:38:21.338Z,2
2023-04-15T21:40:05.043Z,2
2023-04-15T21:41:48.737Z,1
2023-04-15T21:43:32.442Z,2
2023-04-15T21:45:16.150Z,1
2023-04-15T21:46:59.849Z,1
2023-04-15T21:48:43.551Z,1
2023-04-15T21:50:27.258Z,7
2023-04-15T21:52:10.958Z,7
2023-04-15T21:53:54.658Z,8
2023-04-15T21:55:38.411Z,2
2023-04-15T21:57:22.122Z,1
2023-04-15T21:59:05.784Z,1
2023-04-15T22:00:49.468Z,1
2023-04-15T22:02:33.195Z,1
2023-04-15T22:04:16.878Z,7
2023-04-15T22:06:00.582Z,8
2023-04-15T22:07:44.296Z,8
2023-04-15T22:09:27.973Z,2
2023-04-15T22:11:11.689Z,2
2023-04-15T22:12:55.410Z,1
2023-04-15T22:14:39.088Z,1
2023-04-15T22:16:22.787Z,2
2023-04-15T22:18:06.494Z,1
2023-04-15T22:19:50.188Z,2
2023-04-15T22:21:33.900Z,1
2023-04-15T22:23:17.616Z,1
2023-04-15T22:25:01.321Z,1
2023-04-15T22:26:45.012Z,1
2023-04-15T22:28:28.709Z,2
2023-04-15T22:30:12.408Z,1
2023-04-15T22:31:56.118Z,1
2023-04-15T22:33:39.817Z,1
2023-04-15T22:35:23.530Z,1
2023-04-15T22:37:07.213Z,1
2023-04-15T22:38:50.908Z,1
2023-04-15T22:40:34.622Z,0
2023-04-15T22:42:18.332Z,1
2023-04-15T22:44:02.030Z,2
2023-04-15T22:45:45.756Z,1
2023-04-15T22:47:29.429Z,0
2023-04-15T22:49:13.161Z,1
2023-04-15T22:50:56.852Z,1
2023-04-15T22:52:40.562Z,1
2023-04-15T22:54:24.250Z,1
2023-04-15T22:56:07.943Z,1
2023-04-15T22:57:51.656Z,1
2023-04-15T22:59:35.351Z,0
2023-04-15T23:01:19.052Z,0
2023-04-15T23:03:02.757Z,0
2023-04-15T23:04:46.464Z,1
2023-04-15T23:06:30.161Z,1
2023-04-15T23:08:13.866Z,1
2023-04-15T23:09:57.572Z,1
2023-04-15T23:11:41.293Z,1
2023-04-15T23:13:24.973Z,1
2023-04-15T23:15:08.669Z,1
2023-04-15T23:16:52.393Z,1
2023-04-15T23:18:36.087Z,1
2023-04-15T23:20:19.783Z,1
2023-04-15T23:22:03.492Z,1
2023-04-15T23:23:47.187Z,1
2023-04-15T23:25:30.892Z,0
2023-04-15T23:27:14.589Z,1
2023-04-15T23:28:58.286Z,2
2023-04-15T23:30:42.002Z,1
2023-04-15T23:32:25.696Z,1
2023-04-15T23:34:09.394Z,1
2023-04-15T23:35:53.099Z,2
2023-04-15T23:37:36.815Z,2
2023-04-15T23:39:20.523Z,1
2023-04-15T23:41:04.224Z,1
2023-04-15T23:42:47.910Z,1
2023-04-15T23:44:31.615Z,2
2023-04-15T23:46:15.318Z,1
2023-04-15T23:47:59.015Z,1
2023-04-15T23:49:42.721Z,2
2023-04-15T23:51:26.425Z,2
2023-04-15T23:53:10.131Z,1
2023-04-15T23:54:53.836Z,1
2023-04-15T23:56:37.532Z,2
2023-04-15T23:58:21.240Z,1
